Time;durP1;ratioP1;P1;durP2;ratioP2;P2;SDS_P1;SDS_P2;PMS_P1;PMS_P2;Temp;Humidity;BMP_temperature;BMP_pressure;BME280_temperature;BME280_humidity;BME280_pressure;Samples;Min_cycle;Max_cycle;Signal;HPM_P1;HPM_P2
2023/05/15 00:00:27;;;;;;;19.50;15.53;;;;;;;;;;5284859;28;20040;-69
2023/05/15 00:02:58;;;;;;;19.17;16.58;;;;;;;;;;5283782;28;20271;-69
2023/05/15 00:05:29;;;;;;;18.27;16.40;;;;;;;;;;5284920;28;20051;-69
2023/05/15 00:08:00;;;;;;;17.13;15.35;;;;;;;;;;5283947;28;20331;-69
2023/05/15 00:10:31;;;;;;;17.33;15.57;;;;;;;;;;5284474;28;20099;-69
2023/05/15 00:13:02;;;;;;;17.13;15.33;;;;;;;;;;5284726;28;20154;-69
2023/05/15 00:15:34;;;;;;;18.60;16.80;;;;;;;;;;5283881;28;20265;-69
2023/05/15 00:18:05;;;;;;;20.85;16.48;;;;;;;;;;5284501;28;20354;-69
2023/05/15 00:20:36;;;;;;;18.88;16.85;;;;;;;;;;5284430;28;20083;-69
2023/05/15 00:23:08;;;;;;;18.85;16.95;;;;;;;;;;5283512;28;20267;-69
2023/05/15 00:25:39;;;;;;;18.35;16.40;;;;;;;;;;5284069;28;20278;-69
2023/05/15 00:28:10;;;;;;;18.92;17.02;;;;;;;;;;5284586;28;20028;-69
2023/05/15 00:30:41;;;;;;;18.23;16.55;;;;;;;;;;5283160;28;20016;-69
2023/05/15 00:33:12;;;;;;;19.10;17.33;;;;;;;;;;5284461;28;20091;-69
2023/05/15 00:35:44;;;;;;;18.88;17.17;;;;;;;;;;5283659;28;20103;-69
2023/05/15 00:38:16;;;;;;;18.52;16.80;;;;;;;;;;5283929;28;20023;-68
2023/05/15 00:40:47;;;;;;;18.90;16.97;;;;;;;;;;5283694;28;20059;-68
2023/05/15 00:43:18;;;;;;;18.27;16.58;;;;;;;;;;5283381;28;20263;-68
2023/05/15 00:45:51;;;;;;;20.17;18.30;;;;;;;;;;5283622;28;20107;-69
2023/05/15 00:48:24;;;;;;;21.02;18.15;;;;;;;;;;5283911;28;20035;-69
2023/05/15 00:50:56;;;;;;;19.67;17.88;;;;;;;;;;5282545;28;20026;-69
2023/05/15 00:53:27;;;;;;;20.65;18.58;;;;;;;;;;5284016;28;20070;-69
2023/05/15 00:55:59;;;;;;;20.45;18.50;;;;;;;;;;5283340;28;20017;-69
2023/05/15 00:58:31;;;;;;;20.95;18.85;;;;;;;;;;5282724;28;20113;-69
2023/05/15 01:01:02;;;;;;;20.63;18.48;;;;;;;;;;5283609;28;20024;-69
2023/05/15 01:03:33;;;;;;;20.05;18.13;;;;;;;;;;5283779;28;20091;-69
2023/05/15 01:06:04;;;;;;;20.00;18.05;;;;;;;;;;5282699;28;20135;-69
2023/05/15 01:08:42;;;;;;;20.67;18.75;;;;;;;;;;5283443;28;20483;-69
2023/05/15 01:11:14;;;;;;;21.40;19.25;;;;;;;;;;5282774;28;20479;-69
2023/05/15 01:13:45;;;;;;;20.85;18.95;;;;;;;;;;5283187;28;20027;-69
2023/05/15 01:16:17;;;;;;;19.63;17.70;;;;;;;;;;5283680;28;20020;-69
2023/05/15 01:18:48;;;;;;;22.55;20.27;;;;;;;;;;5282198;28;20402;-69
2023/05/15 01:21:26;;;;;;;21.40;19.40;;;;;;;;;;5283349;28;20043;-68
2023/05/15 01:24:16;;;;;;;21.17;18.93;;;;;;;;;;5283037;28;20024;-69
2023/05/15 01:27:10;;;;;;;22.27;20.08;;;;;;;;;;5281952;28;20115;-68
2023/05/15 01:30:00;;;;;;;21.35;19.30;;;;;;;;;;5282533;28;20035;-69
2023/05/15 01:32:51;;;;;;;21.75;19.45;;;;;;;;;;5282290;28;20487;-69
2023/05/15 01:35:28;;;;;;;21.00;18.88;;;;;;;;;;5282881;28;20036;-68
2023/05/15 01:38:20;;;;;;;21.25;19.08;;;;;;;;;;5282557;28;20462;-69
2023/05/15 01:41:07;;;;;;;21.80;19.60;;;;;;;;;;5281134;28;20548;-69
2023/05/15 01:43:39;;;;;;;20.83;18.77;;;;;;;;;;5281207;28;20012;-69
2023/05/15 01:46:15;;;;;;;22.73;20.42;;;;;;;;;;5282171;28;20024;-69
2023/05/15 01:48:47;;;;;;;23.15;20.77;;;;;;;;;;5282976;28;20137;-69
2023/05/15 01:51:18;;;;;;;23.60;21.17;;;;;;;;;;5282886;28;20054;-68
2023/05/15 01:53:50;;;;;;;21.30;19.30;;;;;;;;;;5281724;28;20048;-69
2023/05/15 01:56:23;;;;;;;23.30;21.00;;;;;;;;;;5282868;28;20087;-68
2023/05/15 01:58:55;;;;;;;21.88;19.77;;;;;;;;;;5281560;28;20036;-69
2023/05/15 02:01:27;;;;;;;23.98;21.63;;;;;;;;;;5281434;28;20032;-69
2023/05/15 02:04:00;;;;;;;24.25;21.95;;;;;;;;;;5282215;28;20066;-69
2023/05/15 02:06:32;;;;;;;23.30;21.02;;;;;;;;;;5282345;28;20031;-69
2023/05/15 02:09:03;;;;;;;24.27;21.80;;;;;;;;;;5281748;28;20459;-69
2023/05/15 02:11:35;;;;;;;23.38;21.08;;;;;;;;;;5282075;28;20077;-69
2023/05/15 02:14:07;;;;;;;24.85;21.27;;;;;;;;;;5282210;28;20514;-68
2023/05/15 02:16:38;;;;;;;24.20;21.70;;;;;;;;;;5280937;28;20019;-69
2023/05/15 02:19:09;;;;;;;24.02;21.52;;;;;;;;;;5282451;28;20383;-68
2023/05/15 02:21:41;;;;;;;25.85;22.13;;;;;;;;;;5280935;28;20668;-68
2023/05/15 02:24:12;;;;;;;23.30;21.05;;;;;;;;;;5282336;28;20021;-69
2023/05/15 02:26:55;;;;;;;24.95;22.55;;;;;;;;;;5281594;28;20051;-69
2023/05/15 02:29:32;;;;;;;24.80;22.17;;;;;;;;;;5281501;28;20043;-69
2023/05/15 02:32:03;;;;;;;27.80;23.05;;;;;;;;;;5281960;28;20019;-69
2023/05/15 02:34:47;;;;;;;25.40;23.00;;;;;;;;;;5281784;28;20028;-69
2023/05/15 02:37:21;;;;;;;25.48;22.75;;;;;;;;;;5281139;28;20031;-68
2023/05/15 02:39:54;;;;;;;24.77;22.27;;;;;;;;;;5281320;28;20039;-69
2023/05/15 02:42:25;;;;;;;25.88;23.17;;;;;;;;;;5281252;28;20452;-69
2023/05/15 02:44:57;;;;;;;27.63;24.95;;;;;;;;;;5281176;28;20024;-69
2023/05/15 02:47:29;;;;;;;28.30;25.42;;;;;;;;;;5282167;28;20471;-69
2023/05/15 02:50:01;;;;;;;28.60;25.67;;;;;;;;;;5280927;28;20028;-69
2023/05/15 02:52:33;;;;;;;30.77;26.95;;;;;;;;;;5281725;28;20021;-69
2023/05/15 02:55:05;;;;;;;28.73;25.77;;;;;;;;;;5281445;28;20024;-69
2023/05/15 02:57:36;;;;;;;29.73;26.50;;;;;;;;;;5280607;28;20395;-69
2023/05/15 03:00:10;;;;;;;29.50;26.37;;;;;;;;;;5281887;28;20103;-69
2023/05/15 03:02:41;;;;;;;30.70;27.50;;;;;;;;;;5281309;28;20320;-68
2023/05/15 03:05:12;;;;;;;28.80;25.75;;;;;;;;;;5281486;28;20032;-69
2023/05/15 03:07:44;;;;;;;31.40;28.00;;;;;;;;;;5281104;28;20103;-69
2023/05/15 03:10:15;;;;;;;30.50;27.30;;;;;;;;;;5281939;28;20288;-68
2023/05/15 03:12:46;;;;;;;29.75;26.67;;;;;;;;;;5280374;28;20028;-69
2023/05/15 03:15:19;;;;;;;31.55;28.35;;;;;;;;;;5285483;28;20521;-69
2023/05/15 03:17:50;;;;;;;31.48;28.17;;;;;;;;;;5284604;28;20020;-69
2023/05/15 03:20:21;;;;;;;31.02;27.73;;;;;;;;;;5285757;28;20383;-69
2023/05/15 03:22:52;;;;;;;32.50;29.07;;;;;;;;;;5285195;28;20052;-69
2023/05/15 03:25:24;;;;;;;30.10;26.92;;;;;;;;;;5285145;28;20786;-69
2023/05/15 03:27:55;;;;;;;31.38;28.13;;;;;;;;;;5285154;28;20023;-69
2023/05/15 03:30:26;;;;;;;32.67;29.23;;;;;;;;;;5285621;28;20100;-68
2023/05/15 03:32:57;;;;;;;32.50;29.17;;;;;;;;;;5284053;28;20016;-69
2023/05/15 03:35:29;;;;;;;32.65;28.20;;;;;;;;;;5285642;28;20055;-69
2023/05/15 03:38:00;;;;;;;32.00;28.55;;;;;;;;;;5285006;28;20024;-69
2023/05/15 03:40:31;;;;;;;33.53;29.70;;;;;;;;;;5284323;28;20031;-69
2023/05/15 03:43:02;;;;;;;32.13;28.25;;;;;;;;;;5284869;28;20063;-69
2023/05/15 03:45:34;;;;;;;32.07;28.23;;;;;;;;;;5285021;28;20676;-69
2023/05/15 03:48:05;;;;;;;34.15;29.67;;;;;;;;;;5284004;28;20374;-69
2023/05/15 03:50:36;;;;;;;32.80;29.50;;;;;;;;;;5284792;28;20106;-69
2023/05/15 03:53:07;;;;;;;33.92;30.33;;;;;;;;;;5283926;28;20528;-69
2023/05/15 03:55:38;;;;;;;33.80;30.10;;;;;;;;;;5284382;28;20100;-68
2023/05/15 03:58:10;;;;;;;35.13;31.08;;;;;;;;;;5284931;28;20048;-68
2023/05/15 04:00:41;;;;;;;36.63;32.37;;;;;;;;;;5283498;28;20090;-69
2023/05/15 04:03:12;;;;;;;34.75;31.02;;;;;;;;;;5285209;28;20263;-69
2023/05/15 04:05:43;;;;;;;36.42;29.98;;;;;;;;;;5284426;28;20262;-69
2023/05/15 04:08:15;;;;;;;34.13;30.50;;;;;;;;;;5284021;28;20259;-68
2023/05/15 04:10:46;;;;;;;34.05;30.38;;;;;;;;;;5284332;28;20024;-69
2023/05/15 04:13:17;;;;;;;34.88;31.27;;;;;;;;;;5284936;28;20021;-69
2023/05/15 04:15:48;;;;;;;34.53;30.90;;;;;;;;;;5282949;28;20274;-68
2023/05/15 04:18:19;;;;;;;34.55;30.92;;;;;;;;;;5284718;28;20383;-68
2023/05/15 04:20:51;;;;;;;35.13;31.35;;;;;;;;;;5283321;28;20070;-69
2023/05/15 04:23:22;;;;;;;36.33;31.55;;;;;;;;;;5284701;28;20020;-68
2023/05/15 04:25:54;;;;;;;38.40;32.60;;;;;;;;;;5283571;28;20067;-69
2023/05/15 04:28:25;;;;;;;35.30;31.45;;;;;;;;;;5283791;28;20043;-68
2023/05/15 04:30:57;;;;;;;35.67;31.98;;;;;;;;;;5283615;28;20099;-69
2023/05/15 04:33:28;;;;;;;37.22;33.33;;;;;;;;;;5284455;28;20383;-68
2023/05/15 04:36:00;;;;;;;40.20;33.22;;;;;;;;;;5282962;28;20029;-69
2023/05/15 04:38:32;;;;;;;37.25;33.25;;;;;;;;;;5283969;28;20024;-69
2023/05/15 04:41:03;;;;;;;36.92;32.60;;;;;;;;;;5283753;28;20123;-69
2023/05/15 04:43:34;;;;;;;38.53;33.67;;;;;;;;;;5282938;28;20079;-68
2023/05/15 04:46:06;;;;;;;38.67;34.45;;;;;;;;;;5283862;28;20021;-69
2023/05/15 04:48:37;;;;;;;38.72;34.53;;;;;;;;;;5283758;28;20020;-69
2023/05/15 04:51:08;;;;;;;37.63;33.60;;;;;;;;;;5283020;28;20020;-69
2023/05/15 04:53:39;;;;;;;39.58;35.30;;;;;;;;;;5283157;28;20138;-69
2023/05/15 04:56:11;;;;;;;39.70;35.00;;;;;;;;;;5283122;28;20286;-69
2023/05/15 04:58:42;;;;;;;41.35;36.90;;;;;;;;;;5283033;28;20278;-70
2023/05/15 05:01:13;;;;;;;43.88;37.85;;;;;;;;;;5283956;28;20028;-69
2023/05/15 05:03:44;;;;;;;40.07;34.93;;;;;;;;;;5282364;28;20263;-69
2023/05/15 05:06:15;;;;;;;41.45;37.05;;;;;;;;;;5283609;28;20324;-68
2023/05/15 05:08:46;;;;;;;42.60;37.05;;;;;;;;;;5283018;28;20261;-69
2023/05/15 05:11:18;;;;;;;41.60;37.10;;;;;;;;;;5282866;28;20073;-69
2023/05/15 05:13:49;;;;;;;42.70;37.92;;;;;;;;;;5282674;28;20275;-69
2023/05/15 05:16:20;;;;;;;43.85;37.97;;;;;;;;;;5283537;28;20009;-69
2023/05/15 05:18:52;;;;;;;40.08;35.05;;;;;;;;;;5281854;28;20016;-69
2023/05/15 05:21:23;;;;;;;40.05;35.72;;;;;;;;;;5283617;28;20017;-69
2023/05/15 05:23:54;;;;;;;41.50;34.80;;;;;;;;;;5282864;28;20017;-69
2023/05/15 05:26:26;;;;;;;40.05;34.10;;;;;;;;;;5282471;28;20103;-69
2023/05/15 05:28:57;;;;;;;49.13;36.47;;;;;;;;;;5282550;28;20434;-69
2023/05/15 05:31:28;;;;;;;41.05;33.30;;;;;;;;;;5282310;28;20139;-69
2023/05/15 05:33:59;;;;;;;39.78;32.65;;;;;;;;;;5282605;28;20031;-69
2023/05/15 05:36:30;;;;;;;38.70;32.03;;;;;;;;;;5282092;28;20062;-70
2023/05/15 05:39:03;;;;;;;43.22;35.13;;;;;;;;;;5281707;28;20297;-70
2023/05/15 05:41:34;;;;;;;37.13;32.60;;;;;;;;;;5282480;28;20317;-70
2023/05/15 05:44:05;;;;;;;36.55;31.70;;;;;;;;;;5282516;28;20479;-69
2023/05/15 05:46:37;;;;;;;34.50;29.88;;;;;;;;;;5281646;28;20043;-70
2023/05/15 05:49:08;;;;;;;34.88;29.85;;;;;;;;;;5282779;28;20447;-69
2023/05/15 05:51:39;;;;;;;31.98;28.48;;;;;;;;;;5282043;28;20486;-69
2023/05/15 05:54:10;;;;;;;34.30;29.95;;;;;;;;;;5281933;28;20693;-70
2023/05/15 05:56:41;;;;;;;32.33;28.83;;;;;;;;;;5281790;28;20275;-70
2023/05/15 05:59:13;;;;;;;32.97;28.17;;;;;;;;;;5282293;28;20295;-69
2023/05/15 06:01:44;;;;;;;30.15;26.83;;;;;;;;;;5281034;28;20078;-70
2023/05/15 06:04:17;;;;;;;30.92;27.63;;;;;;;;;;5282381;28;20024;-70
2023/05/15 06:06:49;;;;;;;33.47;27.95;;;;;;;;;;5280922;28;20282;-70
2023/05/15 06:09:20;;;;;;;27.85;25.05;;;;;;;;;;5282633;28;20021;-70
2023/05/15 06:11:51;;;;;;;29.00;25.83;;;;;;;;;;5281615;28;20024;-70
2023/05/15 06:14:22;;;;;;;28.80;24.55;;;;;;;;;;5281586;28;20108;-70
2023/05/15 06:16:53;;;;;;;28.38;25.38;;;;;;;;;;5281403;28;20277;-71
2023/05/15 06:19:25;;;;;;;27.80;24.75;;;;;;;;;;5282283;28;20444;-70
2023/05/15 06:21:56;;;;;;;26.80;24.00;;;;;;;;;;5280868;28;20327;-70
2023/05/15 06:24:27;;;;;;;25.83;23.20;;;;;;;;;;5281967;28;20016;-69
2023/05/15 06:26:58;;;;;;;26.27;23.52;;;;;;;;;;5281547;28;20028;-71
2023/05/15 06:29:30;;;;;;;24.98;22.50;;;;;;;;;;5281066;28;20259;-70
2023/05/15 06:32:01;;;;;;;25.80;23.13;;;;;;;;;;5281604;28;20023;-70
2023/05/15 06:34:32;;;;;;;24.80;22.15;;;;;;;;;;5280394;28;20270;-70
2023/05/15 06:37:03;;;;;;;26.70;23.88;;;;;;;;;;5281963;28;20027;-70
2023/05/15 06:39:35;;;;;;;24.55;22.05;;;;;;;;;;5281544;28;20032;-70
2023/05/15 06:42:06;;;;;;;22.88;20.67;;;;;;;;;;5280874;28;20031;-69
2023/05/15 06:44:38;;;;;;;23.77;21.38;;;;;;;;;;5281339;28;20364;-70
2023/05/15 06:47:09;;;;;;;21.33;19.23;;;;;;;;;;5282070;28;20383;-69
2023/05/15 06:49:40;;;;;;;21.88;19.67;;;;;;;;;;5280292;28;20255;-70
2023/05/15 06:52:11;;;;;;;22.83;20.57;;;;;;;;;;5281868;28;20509;-69
2023/05/15 06:54:42;;;;;;;24.73;22.13;;;;;;;;;;5281137;28;20584;-69
2023/05/15 06:57:14;;;;;;;24.83;21.98;;;;;;;;;;5281243;28;20333;-70
2023/05/15 06:59:45;;;;;;;24.45;22.05;;;;;;;;;;5281431;28;20112;-70
2023/05/15 07:02:16;;;;;;;23.15;20.77;;;;;;;;;;5281858;28;20017;-70
2023/05/15 07:04:47;;;;;;;23.63;21.25;;;;;;;;;;5280475;28;20115;-71
2023/05/15 07:07:19;;;;;;;25.38;22.88;;;;;;;;;;5281616;28;20263;-70
2023/05/15 07:09:50;;;;;;;28.92;25.88;;;;;;;;;;5280212;28;20052;-70
2023/05/15 07:12:21;;;;;;;26.00;23.25;;;;;;;;;;5281524;28;20452;-70
2023/05/15 07:14:53;;;;;;;26.55;23.58;;;;;;;;;;5280856;28;20025;-69
2023/05/15 07:17:24;;;;;;;25.58;22.85;;;;;;;;;;5280844;28;20017;-69
2023/05/15 07:19:55;;;;;;;24.10;21.77;;;;;;;;;;5281024;28;20037;-69
2023/05/15 07:22:27;;;;;;;24.15;21.67;;;;;;;;;;5281708;28;20070;-69
2023/05/15 07:24:59;;;;;;;24.13;21.73;;;;;;;;;;5280295;28;20475;-69
2023/05/15 07:27:30;;;;;;;27.83;25.10;;;;;;;;;;5281100;28;20062;-70
2023/05/15 07:30:02;;;;;;;27.83;25.05;;;;;;;;;;5281259;28;20421;-69
2023/05/15 07:32:34;;;;;;;33.08;29.83;;;;;;;;;;5280356;28;20388;-69
2023/05/15 07:35:05;;;;;;;31.52;28.42;;;;;;;;;;5281364;28;20052;-69
2023/05/15 07:37:37;;;;;;;31.83;28.73;;;;;;;;;;5281239;28;20020;-70
2023/05/15 07:40:08;;;;;;;32.15;29.05;;;;;;;;;;5280500;28;20437;-71
2023/05/15 07:42:41;;;;;;;31.67;28.60;;;;;;;;;;5280604;28;20043;-70
2023/05/15 07:45:12;;;;;;;31.80;28.73;;;;;;;;;;5280676;28;20042;-69
2023/05/15 07:47:45;;;;;;;33.30;30.03;;;;;;;;;;5280940;28;20104;-69
2023/05/15 07:50:16;;;;;;;32.55;29.15;;;;;;;;;;5281202;28;20274;-69
2023/05/15 07:52:47;;;;;;;33.53;30.17;;;;;;;;;;5280030;28;20012;-69
2023/05/15 07:55:19;;;;;;;30.83;27.77;;;;;;;;;;5281247;28;20024;-70
2023/05/15 07:57:50;;;;;;;31.40;28.50;;;;;;;;;;5280338;28;20381;-70
2023/05/15 08:00:21;;;;;;;29.83;26.92;;;;;;;;;;5282201;28;20539;-71
2023/05/15 08:02:53;;;;;;;32.80;29.52;;;;;;;;;;5284277;28;20099;-69
2023/05/15 08:05:24;;;;;;;35.45;31.95;;;;;;;;;;5284799;28;20550;-69
2023/05/15 08:07:55;;;;;;;38.40;34.60;;;;;;;;;;5283055;28;20020;-69
2023/05/15 08:10:27;;;;;;;37.65;33.88;;;;;;;;;;5284881;28;20016;-70
2023/05/15 08:12:58;;;;;;;39.57;35.67;;;;;;;;;;5283363;28;20111;-69
2023/05/15 08:15:29;;;;;;;43.93;39.70;;;;;;;;;;5283677;28;20271;-70
2023/05/15 08:18:00;;;;;;;41.00;36.90;;;;;;;;;;5283400;28;20305;-69
2023/05/15 08:20:31;;;;;;;39.53;35.63;;;;;;;;;;5282810;28;20021;-69
2023/05/15 08:23:03;;;;;;;39.08;35.22;;;;;;;;;;5283365;28;20020;-70
2023/05/15 08:25:34;;;;;;;36.22;32.63;;;;;;;;;;5283173;28;20271;-70
2023/05/15 08:28:05;;;;;;;37.63;33.75;;;;;;;;;;5283004;28;20116;-71
2023/05/15 08:30:36;;;;;;;37.77;34.07;;;;;;;;;;5284055;28;20024;-71
2023/05/15 08:33:07;;;;;;;39.22;35.25;;;;;;;;;;5283828;28;20263;-69
2023/05/15 08:35:39;;;;;;;37.13;33.47;;;;;;;;;;5283033;28;20024;-69
2023/05/15 08:38:10;;;;;;;37.92;34.35;;;;;;;;;;5283924;28;20020;-69
2023/05/15 08:40:45;;;;;;;39.35;35.08;;;;;;;;;;5283404;28;20471;-69
2023/05/15 08:43:16;;;;;;;37.38;33.45;;;;;;;;;;5283151;28;20020;-68
2023/05/15 08:45:48;;;;;;;33.92;30.63;;;;;;;;;;5283650;28;20158;-68
2023/05/15 08:48:19;;;;;;;32.92;29.83;;;;;;;;;;5282347;28;20020;-68
2023/05/15 08:50:51;;;;;;;34.65;31.25;;;;;;;;;;5281209;28;20008;-68
2023/05/15 08:53:23;;;;;;;36.28;32.45;;;;;;;;;;5281713;28;20020;-68
2023/05/15 08:55:55;;;;;;;34.20;30.58;;;;;;;;;;5280106;28;20017;-68
2023/05/15 08:58:27;;;;;;;35.50;31.90;;;;;;;;;;5281566;28;20056;-68
2023/05/15 09:00:59;;;;;;;34.90;31.27;;;;;;;;;;5281740;28;20041;-68
2023/05/15 09:03:30;;;;;;;30.15;27.17;;;;;;;;;;5282644;28;20017;-68
2023/05/15 09:06:03;;;;;;;30.17;26.92;;;;;;;;;;5283277;28;20024;-67
2023/05/15 09:08:34;;;;;;;29.08;26.23;;;;;;;;;;5283035;28;20032;-68
2023/05/15 09:11:06;;;;;;;27.58;24.88;;;;;;;;;;5281355;28;20017;-68
2023/05/15 09:13:37;;;;;;;28.83;26.00;;;;;;;;;;5282703;28;20498;-67
2023/05/15 09:16:09;;;;;;;28.58;25.58;;;;;;;;;;5283598;28;20021;-67
2023/05/15 09:18:43;;;;;;;29.17;26.42;;;;;;;;;;5282077;28;20341;-67
2023/05/15 09:21:25;;;;;;;25.65;23.10;;;;;;;;;;5283514;28;20028;-68
2023/05/15 09:24:16;;;;;;;27.77;25.08;;;;;;;;;;5281957;28;20024;-68
2023/05/15 09:27:05;;;;;;;29.45;26.40;;;;;;;;;;5282470;28;20474;-68
2023/05/15 09:29:37;;;;;;;28.48;25.75;;;;;;;;;;5283015;28;20092;-67
2023/05/15 09:32:09;;;;;;;28.58;25.77;;;;;;;;;;5282098;28;20103;-68
2023/05/15 09:34:42;;;;;;;31.08;28.00;;;;;;;;;;5282757;28;20099;-67
2023/05/15 09:37:27;;;;;;;30.00;27.00;;;;;;;;;;5283027;28;20020;-69
2023/05/15 09:40:11;;;;;;;30.58;27.48;;;;;;;;;;5282250;28;20028;-69
2023/05/15 09:42:50;;;;;;;29.95;26.95;;;;;;;;;;5281845;28;20078;-69
2023/05/15 09:45:21;;;;;;;32.00;26.52;;;;;;;;;;5280399;28;20036;-68
2023/05/15 09:47:52;;;;;;;30.90;27.98;;;;;;;;;;5280082;28;20056;-68
2023/05/15 09:50:30;;;;;;;29.83;26.65;;;;;;;;;;5280604;28;20016;-68
2023/05/15 09:53:02;;;;;;;30.63;27.52;;;;;;;;;;5279772;28;20021;-68
2023/05/15 09:55:34;;;;;;;30.95;27.83;;;;;;;;;;5280519;28;20009;-69
2023/05/15 09:58:10;;;;;;;30.20;27.20;;;;;;;;;;5280864;28;20040;-69
2023/05/15 10:00:42;;;;;;;30.48;27.20;;;;;;;;;;5280448;28;20024;-69
2023/05/15 10:03:13;;;;;;;30.77;27.55;;;;;;;;;;5282821;28;20024;-68
2023/05/15 10:05:44;;;;;;;28.25;25.38;;;;;;;;;;5281183;28;20024;-68
2023/05/15 10:08:25;;;;;;;28.10;25.05;;;;;;;;;;5282485;28;20529;-68
2023/05/15 10:10:59;;;;;;;28.45;25.45;;;;;;;;;;5282050;28;20066;-68
2023/05/15 10:13:31;;;;;;;29.02;24.83;;;;;;;;;;5281506;28;20126;-69
2023/05/15 10:16:03;;;;;;;27.92;25.27;;;;;;;;;;5282092;28;20489;-68
2023/05/15 10:18:35;;;;;;;27.70;25.00;;;;;;;;;;5282163;28;20042;-69
2023/05/15 10:21:10;;;;;;;25.48;23.02;;;;;;;;;;5281158;28;20033;-68
2023/05/15 10:23:42;;;;;;;24.90;22.50;;;;;;;;;;5281467;28;20082;-68
2023/05/15 10:26:20;;;;;;;25.67;23.00;;;;;;;;;;5282154;28;20012;-68
2023/05/15 10:28:51;;;;;;;25.05;22.52;;;;;;;;;;5281048;28;20026;-69
2023/05/15 10:31:23;;;;;;;24.60;22.02;;;;;;;;;;5282031;28;20142;-68
2023/05/15 10:33:54;;;;;;;23.50;21.02;;;;;;;;;;5281053;28;20016;-68
2023/05/15 10:36:26;;;;;;;21.70;19.55;;;;;;;;;;5282219;28;20103;-69
2023/05/15 10:39:00;;;;;;;24.38;21.95;;;;;;;;;;5281600;28;20021;-68
2023/05/15 10:41:38;;;;;;;23.60;21.10;;;;;;;;;;5280922;28;20028;-68
2023/05/15 10:44:10;;;;;;;23.20;20.83;;;;;;;;;;5282017;28;20016;-68
2023/05/15 10:46:41;;;;;;;24.42;22.00;;;;;;;;;;5281397;28;20017;-68
2023/05/15 10:49:13;;;;;;;23.77;21.48;;;;;;;;;;5281297;28;20012;-68
2023/05/15 10:51:44;;;;;;;24.83;22.50;;;;;;;;;;5281370;28;20065;-68
2023/05/15 10:54:16;;;;;;;23.92;21.40;;;;;;;;;;5281890;28;20380;-68
2023/05/15 10:56:47;;;;;;;23.77;21.48;;;;;;;;;;5280363;28;20413;-69
2023/05/15 10:59:18;;;;;;;25.25;22.98;;;;;;;;;;5281480;28;20041;-68
2023/05/15 11:01:49;;;;;;;24.52;22.05;;;;;;;;;;5280373;28;20463;-68
2023/05/15 11:04:21;;;;;;;23.88;21.60;;;;;;;;;;5281841;28;20682;-68
2023/05/15 11:07:10;;;;;;;24.75;22.42;;;;;;;;;;5281073;28;20024;-68
2023/05/15 11:09:41;;;;;;;25.23;22.63;;;;;;;;;;5280523;28;20074;-68
2023/05/15 11:12:12;;;;;;;26.98;24.30;;;;;;;;;;5281903;28;20024;-68
2023/05/15 11:14:55;;;;;;;29.50;25.80;;;;;;;;;;5281164;28;20069;-68
2023/05/15 11:17:30;;;;;;;28.35;25.55;;;;;;;;;;5281017;28;20020;-68
2023/05/15 11:20:01;;;;;;;28.85;25.90;;;;;;;;;;5281674;28;20218;-68
2023/05/15 11:22:37;;;;;;;32.20;28.95;;;;;;;;;;5281481;28;20100;-69
2023/05/15 11:25:11;;;;;;;30.65;27.58;;;;;;;;;;5280875;28;20032;-69
2023/05/15 11:27:43;;;;;;;27.58;24.67;;;;;;;;;;5280998;28;20017;-68
2023/05/15 11:30:20;;;;;;;31.73;28.63;;;;;;;;;;5281051;28;20176;-68
2023/05/15 11:32:57;;;;;;;29.40;26.48;;;;;;;;;;5281061;28;20042;-68
2023/05/15 11:35:31;;;;;;;31.75;28.67;;;;;;;;;;5283731;28;20028;-68
2023/05/15 11:38:03;;;;;;;32.15;28.90;;;;;;;;;;5284302;28;20012;-68
2023/05/15 11:40:46;;;;;;;32.63;29.30;;;;;;;;;;5284867;28;20031;-68
2023/05/15 11:43:17;;;;;;;29.15;26.13;;;;;;;;;;5285323;28;20017;-68
2023/05/15 11:45:54;;;;;;;28.27;25.45;;;;;;;;;;5283966;28;20561;-68
2023/05/15 11:48:30;;;;;;;28.00;25.17;;;;;;;;;;5285248;28;20511;-68
2023/05/15 11:51:01;;;;;;;30.70;25.30;;;;;;;;;;5284036;28;20096;-68
2023/05/15 11:53:33;;;;;;;30.20;26.67;;;;;;;;;;5284883;28;20522;-68
2023/05/15 11:56:04;;;;;;;32.53;29.23;;;;;;;;;;5284857;28;20012;-69
2023/05/15 11:58:37;;;;;;;35.03;31.15;;;;;;;;;;5284069;28;20036;-69
2023/05/15 12:01:09;;;;;;;29.63;26.55;;;;;;;;;;5284815;28;20036;-68
2023/05/15 12:03:40;;;;;;;33.50;29.73;;;;;;;;;;5284284;28;20048;-68
2023/05/15 12:06:13;;;;;;;37.50;33.15;;;;;;;;;;5284208;28;20123;-69
2023/05/15 12:08:49;;;;;;;36.70;32.78;;;;;;;;;;5284296;28;20108;-68
2023/05/15 12:11:23;;;;;;;36.50;32.60;;;;;;;;;;5284640;28;20025;-68
2023/05/15 12:13:54;;;;;;;40.67;36.47;;;;;;;;;;5283192;28;20020;-68
2023/05/15 12:16:26;;;;;;;41.88;37.58;;;;;;;;;;5284572;28;20412;-68
2023/05/15 12:18:57;;;;;;;43.20;38.60;;;;;;;;;;5284119;28;20713;-68
2023/05/15 12:21:29;;;;;;;43.78;39.28;;;;;;;;;;5283871;28;20047;-68
2023/05/15 12:24:00;;;;;;;42.58;37.85;;;;;;;;;;5284373;28;20020;-68
2023/05/15 12:26:32;;;;;;;45.63;40.17;;;;;;;;;;5283681;28;20103;-68
2023/05/15 12:29:03;;;;;;;42.38;37.83;;;;;;;;;;5284155;28;20266;-68
2023/05/15 12:31:35;;;;;;;42.58;37.90;;;;;;;;;;5284383;28;20380;-68
2023/05/15 12:34:06;;;;;;;43.65;39.05;;;;;;;;;;5283481;28;20091;-68
2023/05/15 12:36:39;;;;;;;49.40;40.72;;;;;;;;;;5283753;28;20024;-68
2023/05/15 12:39:11;;;;;;;46.17;40.63;;;;;;;;;;5284168;28;20044;-68
2023/05/15 12:41:43;;;;;;;48.28;40.22;;;;;;;;;;5282880;28;20055;-69
2023/05/15 12:44:15;;;;;;;42.35;37.15;;;;;;;;;;5283955;28;20044;-68
2023/05/15 12:46:47;;;;;;;44.92;39.00;;;;;;;;;;5283292;28;20052;-68
2023/05/15 12:49:21;;;;;;;43.92;37.75;;;;;;;;;;5283666;28;20013;-68
2023/05/15 12:51:52;;;;;;;48.17;39.33;;;;;;;;;;5283654;28;20034;-68
2023/05/15 12:54:24;;;;;;;45.63;40.07;;;;;;;;;;5283274;28;20091;-69
2023/05/15 12:56:55;;;;;;;44.65;39.45;;;;;;;;;;5283335;28;20278;-68
2023/05/15 12:59:26;;;;;;;46.10;39.17;;;;;;;;;;5283598;28;20492;-68
2023/05/15 13:01:57;;;;;;;45.10;40.03;;;;;;;;;;5282682;28;20750;-68
2023/05/15 13:04:31;;;;;;;45.33;39.00;;;;;;;;;;5283855;28;20021;-68
2023/05/15 13:07:03;;;;;;;41.67;37.15;;;;;;;;;;5283247;28;20266;-69
2023/05/15 13:09:34;;;;;;;45.00;38.28;;;;;;;;;;5282570;28;20024;-69
2023/05/15 13:12:05;;;;;;;43.72;38.80;;;;;;;;;;5283408;28;20425;-68
2023/05/15 13:14:36;;;;;;;43.72;37.92;;;;;;;;;;5283328;28;20016;-68
2023/05/15 13:17:07;;;;;;;43.23;37.33;;;;;;;;;;5282592;28;20024;-68
2023/05/15 13:19:39;;;;;;;41.88;36.85;;;;;;;;;;5282727;28;20283;-69
2023/05/15 13:22:10;;;;;;;38.97;34.70;;;;;;;;;;5283308;28;20290;-68
2023/05/15 13:24:44;;;;;;;39.40;35.17;;;;;;;;;;5282127;28;20027;-68
2023/05/15 13:27:15;;;;;;;39.03;34.72;;;;;;;;;;5283387;28;20259;-68
2023/05/15 13:29:46;;;;;;;38.42;34.22;;;;;;;;;;5281976;28;20128;-68
2023/05/15 13:32:17;;;;;;;39.60;34.93;;;;;;;;;;5283104;28;20288;-68
2023/05/15 13:34:49;;;;;;;37.67;33.63;;;;;;;;;;5282632;28;20306;-68
2023/05/15 13:37:20;;;;;;;37.67;31.60;;;;;;;;;;5282665;28;20297;-68
2023/05/15 13:39:51;;;;;;;34.43;30.33;;;;;;;;;;5282590;28;20032;-68
2023/05/15 13:42:23;;;;;;;33.60;28.83;;;;;;;;;;5283049;28;20306;-67
2023/05/15 13:44:54;;;;;;;28.63;25.50;;;;;;;;;;5281828;28;20320;-68
2023/05/15 13:47:25;;;;;;;28.73;24.70;;;;;;;;;;5282813;28;20263;-68
2023/05/15 13:49:57;;;;;;;30.90;25.25;;;;;;;;;;5282461;28;20278;-68
2023/05/15 13:52:28;;;;;;;30.17;23.58;;;;;;;;;;5281854;28;20111;-68
2023/05/15 13:54:59;;;;;;;28.13;23.95;;;;;;;;;;5282165;28;20447;-68
2023/05/15 13:57:31;;;;;;;27.23;23.20;;;;;;;;;;5281399;28;20093;-68
2023/05/15 14:00:04;;;;;;;23.85;21.25;;;;;;;;;;5281498;28;20028;-68
2023/05/15 14:02:36;;;;;;;20.05;17.95;;;;;;;;;;5282334;28;20051;-68
2023/05/15 14:05:08;;;;;;;19.60;17.60;;;;;;;;;;5281678;28;20048;-68
2023/05/15 14:07:40;;;;;;;21.65;19.35;;;;;;;;;;5282029;28;20266;-68
2023/05/15 14:10:11;;;;;;;18.83;16.83;;;;;;;;;;5282420;28;20081;-68
2023/05/15 14:12:42;;;;;;;17.43;15.63;;;;;;;;;;5281082;28;20024;-68
2023/05/15 14:15:13;;;;;;;16.88;13.50;;;;;;;;;;5282342;28;20291;-67
2023/05/15 14:17:47;;;;;;;13.88;12.40;;;;;;;;;;5281562;28;20028;-68
2023/05/15 14:20:18;;;;;;;13.05;11.75;;;;;;;;;;5281360;28;20131;-68
2023/05/15 14:22:49;;;;;;;12.13;9.77;;;;;;;;;;5281505;28;20087;-67
2023/05/15 14:25:21;;;;;;;8.53;7.53;;;;;;;;;;5282468;28;20048;-67
2023/05/15 14:27:52;;;;;;;7.25;6.55;;;;;;;;;;5281055;28;20255;-67
2023/05/15 14:30:23;;;;;;;6.28;5.68;;;;;;;;;;5282137;28;20019;-68
2023/05/15 14:32:54;;;;;;;6.30;5.30;;;;;;;;;;5280649;28;20091;-68
2023/05/15 14:35:25;;;;;;;7.60;4.57;;;;;;;;;;5282076;28;20021;-68
2023/05/15 14:37:57;;;;;;;8.65;4.00;;;;;;;;;;5281575;28;20303;-68
2023/05/15 14:40:28;;;;;;;8.07;5.10;;;;;;;;;;5281181;28;20024;-68
2023/05/15 14:42:59;;;;;;;6.30;4.67;;;;;;;;;;5281303;28;20036;-67
2023/05/15 14:45:30;;;;;;;7.80;4.22;;;;;;;;;;5281227;28;20259;-68
2023/05/15 14:48:02;;;;;;;7.25;3.60;;;;;;;;;;5280900;28;20533;-68